createdAt,value
2019-02-20T00:01:12.491Z,99400.22
2019-02-20T00:06:18.088Z,99405.06
2019-02-20T00:11:24.125Z,99413.05
2019-02-20T00:16:32.187Z,99415.13
2019-02-20T00:21:39.529Z,99426.81
2019-02-20T00:26:46.163Z,99427.47
2019-02-20T00:31:54.121Z,99438.02
2019-02-20T00:37:08.219Z,99440.11
2019-02-20T00:42:14.039Z,99443.37
2019-02-20T00:47:35.628Z,99445.81
2019-02-20T00:52:51.851Z,99453.84
2019-02-20T00:58:00.097Z,99456.69
2019-02-20T01:03:06.364Z,99448.55
2019-02-20T01:08:15.277Z,99456.11
2019-02-20T01:13:20.930Z,99461.19
2019-02-20T01:18:26.987Z,99458.12
2019-02-20T01:23:36.778Z,99457.23
2019-02-20T01:28:45.235Z,99447.22
2019-02-20T01:33:51.972Z,99445.13
2019-02-20T01:39:04.445Z,99439.66
2019-02-20T01:44:13.554Z,99434.42
2019-02-20T01:49:24.516Z,99426.31
2019-02-20T01:54:38.809Z,99433.64
2019-02-20T01:59:52.377Z,99424.67
2019-02-20T02:04:57.783Z,99436.50
2019-02-20T02:10:03.819Z,99439.27
2019-02-20T02:15:20.019Z,99438.41
2019-02-20T02:20:20.361Z,99425.59
2019-02-20T02:25:26.367Z,99430.11
2019-02-20T02:30:32.130Z,99436.93
2019-02-20T02:35:37.725Z,99436.93
2019-02-20T02:40:47.046Z,99434.11
2019-02-20T02:45:59.402Z,99438.22
2019-02-20T02:51:03.639Z,99448.61
2019-02-20T02:56:09.373Z,99451.80
2019-02-20T03:01:15.005Z,99451.89
2019-02-20T03:06:22.950Z,99452.19
2019-02-20T03:11:28.576Z,99452.09
2019-02-20T03:16:39.848Z,99448.73
2019-02-20T03:21:51.910Z,99449.12
2019-02-20T03:26:58.023Z,99459.05
2019-02-20T03:32:06.179Z,99459.16
2019-02-20T03:37:13.569Z,99472.48
2019-02-20T03:42:21.531Z,99470.23
2019-02-20T03:47:32.221Z,99465.83
2019-02-20T03:52:37.905Z,99478.52
2019-02-20T03:57:46.681Z,99474.89
2019-02-20T04:02:55.117Z,99475.92
2019-02-20T04:08:05.496Z,99468.00
2019-02-20T04:13:14.030Z,99468.00
2019-02-20T04:18:20.318Z,99474.03
2019-02-20T04:23:27.849Z,99482.19
2019-02-20T04:28:36.525Z,99482.56
2019-02-20T04:33:44.022Z,99477.23
2019-02-20T04:38:51.594Z,99477.23
2019-02-20T04:43:57.267Z,99475.02
2019-02-20T04:49:05.672Z,99475.42
2019-02-20T04:54:13.631Z,99480.73
2019-02-20T04:59:18.612Z,99477.98
2019-02-20T05:04:25.868Z,99492.77
2019-02-20T05:09:31.826Z,99492.77
2019-02-20T05:14:37.396Z,99490.75
2019-02-20T05:19:43.060Z,99485.13
2019-02-20T05:24:50.741Z,99485.13
2019-02-20T05:29:56.375Z,99493.45
2019-02-20T05:35:08.609Z,99487.61
2019-02-20T05:40:14.342Z,99501.16
2019-02-20T05:45:20.176Z,99501.20
2019-02-20T05:50:25.839Z,99501.20
2019-02-20T05:55:40.467Z,99505.55
2019-02-20T06:00:46.047Z,99516.41
2019-02-20T06:05:51.616Z,99516.41
2019-02-20T06:10:58.437Z,99510.23
2019-02-20T06:16:07.639Z,99533.59
2019-02-20T06:21:16.382Z,99544.80
2019-02-20T06:26:23.369Z,99554.05
2019-02-20T06:31:30.320Z,99552.67
2019-02-20T06:36:37.939Z,99551.53
2019-02-20T06:41:47.707Z,99573.67
2019-02-20T06:46:53.394Z,99575.69
2019-02-20T06:51:59.482Z,99594.67
2019-02-20T06:57:09.238Z,99594.67
2019-02-20T07:02:15.107Z,99597.35
2019-02-20T07:07:57.732Z,99597.26
2019-02-20T07:13:37.704Z,99609.24
2019-02-20T07:19:23.424Z,99604.61
2019-02-20T07:25:03.943Z,99614.83
2019-02-20T07:30:15.002Z,99614.83
2019-02-20T07:35:21.967Z,99634.80
2019-02-20T07:40:28.600Z,99648.97
2019-02-20T07:45:36.240Z,99656.48
2019-02-20T07:50:42.379Z,99645.34
2019-02-20T07:55:49.299Z,99656.93
2019-02-20T08:00:54.968Z,99661.13
2019-02-20T08:06:01.029Z,99668.84
2019-02-20T08:11:11.449Z,99673.75
2019-02-20T08:16:20.689Z,99670.77
2019-02-20T08:21:27.812Z,99678.05
2019-02-20T08:26:35.959Z,99683.79
2019-02-20T08:31:44.369Z,99689.16
2019-02-20T08:36:59.742Z,99690.49
2019-02-20T08:42:11.135Z,99698.42
2019-02-20T08:47:16.752Z,99695.16
2019-02-20T08:52:23.376Z,99693.80
2019-02-20T08:57:29.043Z,99703.16
2019-02-20T09:02:35.066Z,99712.62
2019-02-20T09:07:40.794Z,99718.77
2019-02-20T09:12:47.926Z,99724.17
2019-02-20T09:17:55.426Z,99729.97
2019-02-20T09:23:00.999Z,99736.16
2019-02-20T09:28:07.447Z,99730.62
2019-02-20T09:33:16.442Z,99725.19
2019-02-20T09:38:22.022Z,99740.22
2019-02-20T09:43:33.756Z,99734.59
2019-02-20T09:48:39.400Z,99738.67
2019-02-20T09:53:51.326Z,99744.66
2019-02-20T09:58:58.941Z,99740.70
2019-02-20T10:04:06.178Z,99743.64
2019-02-20T10:09:14.241Z,99745.12
2019-02-20T10:14:20.105Z,99740.31
2019-02-20T10:19:25.818Z,99738.43
2019-02-20T10:24:34.504Z,99738.47
2019-02-20T10:29:41.765Z,99742.55
2019-02-20T10:34:49.101Z,99744.48
2019-02-20T10:39:57.042Z,99731.64
2019-02-20T10:45:09.244Z,99731.92
2019-02-20T10:50:18.719Z,99734.13
2019-02-20T10:55:24.386Z,99734.00
2019-02-20T11:00:31.931Z,99729.78
2019-02-20T11:05:37.631Z,99722.59
2019-02-20T11:10:44.454Z,99731.28
2019-02-20T11:15:53.728Z,99736.38
2019-02-20T11:21:01.174Z,99737.78
2019-02-20T11:26:17.856Z,99745.75
2019-02-20T11:31:25.047Z,99732.75
2019-02-20T11:36:30.723Z,99737.05
2019-02-20T11:41:36.428Z,99729.64
2019-02-20T11:51:53.213Z,99724.25
2019-02-20T11:56:58.958Z,99721.02
2019-02-20T12:02:07.709Z,99723.35
2019-02-20T12:07:17.666Z,99717.52
2019-02-20T12:12:27.329Z,99710.75
2019-02-20T12:17:38.622Z,99706.66
2019-02-20T12:22:45.983Z,99705.23
2019-02-20T12:27:51.598Z,99716.30
2019-02-20T12:32:59.706Z,99715.12
2019-02-20T12:38:08.766Z,99719.28
2019-02-20T12:43:17.611Z,99716.50
2019-02-20T12:48:23.434Z,99719.13
2019-02-20T12:53:36.106Z,99718.27
2019-02-20T12:58:51.224Z,99711.41
2019-02-20T13:03:56.396Z,99709.95
2019-02-20T13:14:10.585Z,99709.57
2019-02-20T13:19:18.942Z,99704.55
2019-02-20T13:24:24.856Z,99702.28
2019-02-20T13:29:31.472Z,99708.70
2019-02-20T13:34:37.677Z,99713.11
2019-02-20T13:39:52.138Z,99718.55
2019-02-20T13:44:57.660Z,99717.15
2019-02-20T13:50:03.547Z,99720.99
2019-02-20T13:55:14.239Z,99728.33
2019-02-20T14:00:23.285Z,99730.61
2019-02-20T14:05:29.117Z,99727.55
2019-02-20T14:10:38.063Z,99728.66
2019-02-20T14:15:45.597Z,99733.55
2019-02-20T14:20:54.331Z,99727.60
2019-02-20T14:26:00.069Z,99733.75
2019-02-20T14:31:11.997Z,99732.42
2019-02-20T14:36:19.851Z,99725.36
2019-02-20T14:41:30.433Z,99719.25
2019-02-20T14:46:37.019Z,99724.56
2019-02-20T14:51:42.768Z,99713.97
2019-02-20T14:56:50.769Z,99717.89
2019-02-20T15:01:56.484Z,99725.58
2019-02-20T15:07:09.653Z,99717.68
2019-02-20T15:12:21.084Z,99721.20
2019-02-20T15:17:32.788Z,99721.66
2019-02-20T15:22:39.892Z,99727.09
2019-02-20T15:27:48.932Z,99730.88
2019-02-20T15:32:54.724Z,99730.82
2019-02-20T15:38:02.929Z,99742.30
2019-02-20T15:43:12.214Z,99739.85
2019-02-20T15:48:23.634Z,99747.28
2019-02-20T15:53:29.374Z,99754.60
2019-02-20T15:58:35.579Z,99760.43
2019-02-20T16:03:43.541Z,99766.41
2019-02-20T16:08:52.459Z,99761.62
2019-02-20T16:13:58.192Z,99770.50
2019-02-20T16:19:11.337Z,99777.42
2019-02-20T16:24:26.035Z,99771.91
2019-02-20T16:29:31.760Z,99778.67
2019-02-20T16:34:38.025Z,99777.38
2019-02-20T16:39:52.902Z,99785.28
2019-02-20T16:45:00.608Z,99786.95
2019-02-20T16:50:07.032Z,99787.84
2019-02-20T16:55:19.143Z,99789.56
2019-02-20T17:00:29.883Z,99785.64
2019-02-20T17:05:40.261Z,99793.14
2019-02-20T17:10:46.019Z,99801.36
2019-02-20T17:15:58.884Z,99813.14
2019-02-20T17:21:05.245Z,99812.83
2019-02-20T17:26:11.590Z,99815.17
2019-02-20T17:31:23.903Z,99814.14
2019-02-20T17:36:29.823Z,99821.02
2019-02-20T17:41:41.140Z,99827.06
2019-02-20T17:46:46.871Z,99830.92
2019-02-20T17:51:54.250Z,99828.54
2019-02-20T17:57:01.286Z,99842.73
2019-02-20T18:02:10.186Z,99848.95
2019-02-20T18:07:17.237Z,99852.98
2019-02-20T18:12:25.323Z,99853.29
2019-02-20T18:17:31.443Z,99851.39
2019-02-20T18:22:47.734Z,99857.12
2019-02-20T18:27:55.342Z,99858.26
2019-02-20T18:33:04.782Z,99851.19
2019-02-20T18:38:11.599Z,99846.88
2019-02-20T18:43:21.068Z,99857.81
2019-02-20T18:48:27.920Z,99862.12
2019-02-20T18:53:38.320Z,99864.80
2019-02-20T18:58:45.089Z,99865.87
2019-02-20T19:03:56.714Z,99876.29
2019-02-20T19:09:23.713Z,99877.34
2019-02-20T19:14:47.423Z,99879.80
2019-02-20T19:20:06.775Z,99882.58
2019-02-20T19:25:48.416Z,99887.20
2019-02-20T19:31:49.213Z,99887.46
2019-02-20T19:37:38.052Z,99892.34
2019-02-20T19:43:29.859Z,99899.55
2019-02-20T19:49:18.306Z,99899.91
2019-02-20T19:54:48.861Z,99904.78
2019-02-20T20:00:49.478Z,99902.33
2019-02-20T20:06:33.210Z,99900.32
2019-02-20T20:12:22.222Z,99899.84
2019-02-20T20:18:13.159Z,99898.45
2019-02-20T20:24:11.041Z,99910.17
2019-02-20T20:30:09.045Z,99916.30
2019-02-20T20:36:03.205Z,99919.27
2019-02-20T20:41:25.685Z,99912.77
2019-02-20T20:47:09.447Z,99920.38
2019-02-20T20:52:59.208Z,99915.50
2019-02-20T20:58:39.990Z,99893.19
2019-02-20T21:04:37.104Z,99890.94
2019-02-20T21:10:10.187Z,99901.67
2019-02-20T21:16:21.569Z,99909.41
2019-02-20T21:22:05.121Z,99905.45
2019-02-20T21:27:51.226Z,99898.80
2019-02-20T21:33:52.928Z,99901.42
2019-02-20T21:39:30.399Z,99905.47
2019-02-20T21:45:35.260Z,99899.47
2019-02-20T21:51:06.275Z,99901.83
2019-02-20T21:56:52.608Z,99909.59
2019-02-20T22:02:36.076Z,99909.30
2019-02-20T22:08:20.701Z,99909.08
2019-02-20T22:14:02.614Z,99910.91
2019-02-20T22:19:31.988Z,99910.09
2019-02-20T22:25:00.276Z,99916.36
2019-02-20T22:30:50.725Z,99913.24
2019-02-20T22:36:40.450Z,99915.52
2019-02-20T22:42:14.860Z,99919.13
2019-02-20T22:47:53.886Z,99920.22
2019-02-20T22:53:45.994Z,99917.02
2019-02-20T22:59:36.417Z,99896.97
2019-02-20T23:05:21.449Z,99914.53
2019-02-20T23:11:10.691Z,99917.20
2019-02-20T23:16:16.680Z,99912.54
2019-02-20T23:21:22.296Z,99919.66
2019-02-20T23:26:33.293Z,99915.72
2019-02-20T23:31:39.507Z,99925.03
2019-02-20T23:36:45.570Z,99926.61
2019-02-20T23:41:53.136Z,99914.85
2019-02-20T23:52:56.019Z,99934.05
2019-02-20T23:58:10.862Z,99935.88
